Time;durP1;ratioP1;P1;durP2;ratioP2;P2;SDS_P1;SDS_P2;PMS_P1;PMS_P2;Temp;Humidity;BMP_temperature;BMP_pressure;BME280_temperature;BME280_humidity;BME280_pressure;Samples;Min_cycle;Max_cycle;Signal;HPM_P1;HPM_P2
2022/01/27 00:02:57;;;;;;;;;;;;;;;-6.45;84.04;99616.18;1644077;87;20203;-72
2022/01/27 00:05:20;;;;;;;;;;;;;;;-6.56;84.09;99614.11;1641985;87;20493;-71
2022/01/27 00:07:43;;;;;;;;;;;;;;;-6.64;84.28;99619.13;1628968;87;20594;-71
2022/01/27 00:10:42;;;;;;;;;;;;;;;-6.70;84.38;99620.76;1617385;88;20128;-70
2022/01/27 00:12:52;;;;;;;;;;;;;;;-6.78;84.49;99616.94;1615209;88;20158;-71
2022/01/27 00:15:23;;;;;;;;;;;;;;;-6.82;84.98;99612.20;1617449;87;20235;-71
2022/01/27 00:17:56;;;;;;;;;;;;;;;-6.82;85.39;99609.53;1617289;88;21180;-71
2022/01/27 00:20:15;;;;;;;;;;;;;;;-6.80;85.64;99614.98;1616443;88;20160;-71
2022/01/27 00:22:42;;;;;;;;;;;;;;;-6.81;85.85;99610.67;1617398;88;20432;-71
2022/01/27 00:25:10;;;;;;;;;;;;;;;-6.80;86.16;99613.65;1617443;88;20173;-71
2022/01/27 00:27:36;;;;;;;;;;;;;;;-6.78;86.42;99612.11;1617751;87;20226;-71
2022/01/27 00:30:05;;;;;;;;;;;;;;;-6.79;86.78;99612.63;1617389;87;21161;-71
2022/01/27 00:32:32;;;;;;;;;;;;;;;-6.77;86.91;99611.91;1617670;88;20483;-71
2022/01/27 00:34:59;;;;;;;;;;;;;;;-6.73;87.37;99607.81;1617313;88;20159;-70
2022/01/27 00:37:26;;;;;;;;;;;;;;;-6.70;87.46;99604.73;1617369;87;20204;-70
2022/01/27 00:39:52;;;;;;;;;;;;;;;-6.63;87.77;99599.41;1617408;88;20178;-71
2022/01/27 00:42:18;;;;;;;;;;;;;;;-6.57;87.98;99595.92;1617800;88;21119;-70
2022/01/27 00:44:44;;;;;;;;;;;;;;;-6.49;88.19;99593.58;1617417;88;20108;-70
2022/01/27 00:47:10;;;;;;;;;;;;;;;-6.45;88.42;99601.48;1617952;87;20247;-70
2022/01/27 00:49:37;;;;;;;;;;;;;;;-6.40;88.57;99604.37;1617558;88;20192;-71
2022/01/27 00:52:15;;;;;;;;;;;;;;;-6.35;88.64;99601.88;1617650;87;20168;-71
2022/01/27 00:54:38;;;;;;;;;;;;;;;-6.27;88.85;99599.00;1617177;88;21161;-70
2022/01/27 00:57:15;;;;;;;;;;;;;;;-6.15;88.81;99597.87;1617608;88;20842;-71
2022/01/27 00:59:53;;;;;;;;;;;;;;;-6.06;88.52;99600.64;1616223;88;20133;-70
2022/01/27 01:04:39;;;;;;;;;;;;;;;-5.83;87.77;99596.98;1617442;88;20209;-70
2022/01/27 01:07:05;;;;;;;;;;;;;;;-5.72;87.38;99597.66;1617314;87;21988;-70
2022/01/27 01:15:15;;;;;;;;;;;;;;;-5.46;85.60;99587.92;1599220;87;20130;-70
2022/01/27 01:17:41;;;;;;;;;;;;;;;-5.40;84.96;99586.56;1590171;90;20444;-70
2022/01/27 01:31:29;;;;;;;;;;;;;;;-5.22;83.46;99587.22;1616388;88;20194;-71
2022/01/27 01:33:45;;;;;;;;;;;;;;;-5.27;83.17;99580.34;1614651;88;21998;-70
2022/01/27 01:36:26;;;;;;;;;;;;;;;-5.33;83.26;99578.00;1616201;88;20146;-71
2022/01/27 01:38:44;;;;;;;;;;;;;;;-5.36;83.25;99582.44;1615093;88;20462;-71
2022/01/27 01:41:10;;;;;;;;;;;;;;;-5.38;83.14;99577.81;1616421;88;20178;-71
2022/01/27 01:43:36;;;;;;;;;;;;;;;-5.41;83.02;99563.52;1616283;89;20143;-71
2022/01/27 01:46:02;;;;;;;;;;;;;;;-5.41;82.90;99558.16;1616221;87;21152;-70
2022/01/27 01:48:29;;;;;;;;;;;;;;;-5.43;82.69;99558.89;1616316;88;20170;-71
2022/01/27 01:50:55;;;;;;;;;;;;;;;-5.45;82.59;99558.28;1616196;88;20506;-70
2022/01/27 01:53:21;;;;;;;;;;;;;;;-5.46;82.67;99559.83;1616261;89;21793;-70
2022/01/27 01:55:48;;;;;;;;;;;;;;;-5.46;82.81;99559.31;1616535;87;20171;-70
2022/01/27 01:58:14;;;;;;;;;;;;;;;-5.44;82.87;99558.59;1616241;89;21128;-70
2022/01/27 02:00:40;;;;;;;;;;;;;;;-5.43;82.71;99558.07;1616234;88;20201;-70
2022/01/27 02:03:06;;;;;;;;;;;;;;;-5.41;82.90;99557.34;1616453;88;20168;-70
2022/01/27 02:05:39;;;;;;;;;;;;;;;-5.37;82.94;99555.89;1616418;88;20210;-70
2022/01/27 02:08:41;;;;;;;;;;;;;;;-5.32;82.88;99555.55;1598911;88;20498;-71
2022/01/27 02:17:58;;;;;;;;;;;;;;;-5.29;82.85;99552.97;1588992;90;21013;-70
2022/01/27 02:18:40;;;;;;;;;;;;;;;-5.25;82.61;99533.30;1590894;90;20928;-69
2022/01/27 02:21:06;;;;;;;;;;;;;;;-5.23;82.46;99532.05;1590860;90;20145;-70
2022/01/27 02:23:32;;;;;;;;;;;;;;;-5.24;82.43;99526.91;1590978;89;21155;-70
2022/01/27 02:25:58;;;;;;;;;;;;;;;-5.24;82.58;99533.08;1591104;90;20468;-70
2022/01/27 02:28:25;;;;;;;;;;;;;;;-5.22;82.55;99532.88;1591099;90;20487;-69
2022/01/27 02:30:51;;;;;;;;;;;;;;;-5.19;82.59;99535.09;1590823;90;21990;-70
2022/01/27 02:33:28;;;;;;;;;;;;;;;-5.16;82.64;99527.45;1590923;90;20317;-70
2022/01/27 02:35:55;;;;;;;;;;;;;;;-5.12;82.46;99528.66;1590843;88;21078;-70
2022/01/27 02:38:21;;;;;;;;;;;;;;;-5.08;82.28;99522.37;1590958;88;20149;-70
2022/01/27 02:40:54;;;;;;;;;;;;;;;-5.07;82.25;99518.66;1590927;90;20209;-70
2022/01/27 02:43:20;;;;;;;;;;;;;;;-5.04;82.25;99516.37;1590467;90;20491;-69
2022/01/27 02:45:56;;;;;;;;;;;;;;;-5.03;82.42;99521.20;1591049;90;20201;-69
2022/01/27 02:48:22;;;;;;;;;;;;;;;-5.02;82.39;99517.49;1590803;90;21838;-70
2022/01/27 02:50:49;;;;;;;;;;;;;;;-5.03;82.33;99512.66;1590952;89;20161;-70
2022/01/27 02:53:15;;;;;;;;;;;;;;;-5.05;82.35;99513.91;1591032;90;20184;-70
2022/01/27 02:55:42;;;;;;;;;;;;;;;-5.08;82.23;99510.32;1590854;90;20132;-70
2022/01/27 02:58:09;;;;;;;;;;;;;;;-5.08;82.22;99507.64;1591040;90;20471;-70
2022/01/27 03:00:36;;;;;;;;;;;;;;;-5.10;82.19;99508.38;1591023;90;21162;-70
2022/01/27 03:03:02;;;;;;;;;;;;;;;-5.14;82.26;99502.63;1590853;89;20114;-70
2022/01/27 03:05:29;;;;;;;;;;;;;;;-5.19;82.35;99502.45;1590995;90;20221;-70
2022/01/27 03:07:55;;;;;;;;;;;;;;;-5.24;82.76;99500.15;1590943;89;20185;-71
2022/01/27 03:10:22;;;;;;;;;;;;;;;-5.26;82.95;99495.53;1590871;88;20182;-71
2022/01/27 03:12:49;;;;;;;;;;;;;;;-5.30;82.90;99492.98;1573752;90;21158;-70
2022/01/27 03:15:17;;;;;;;;;;;;;;;-5.35;82.80;99500.31;1590729;88;20109;-70
2022/01/27 03:17:43;;;;;;;;;;;;;;;-5.42;82.92;99496.33;1591024;90;20117;-70
2022/01/27 03:20:11;;;;;;;;;;;;;;;-5.46;83.09;99499.13;1590781;90;20177;-70
2022/01/27 03:22:37;;;;;;;;;;;;;;;-5.53;83.06;99491.64;1591141;90;20461;-70
2022/01/27 03:25:04;;;;;;;;;;;;;;;-5.61;83.02;99495.90;1591246;89;22814;-69
2022/01/27 03:27:30;;;;;;;;;;;;;;;-5.67;83.21;99489.55;1591055;90;20187;-72
2022/01/27 03:29:57;;;;;;;;;;;;;;;-5.75;83.42;99488.44;1590684;89;20189;-72
2022/01/27 03:32:25;;;;;;;;;;;;;;;-5.80;83.60;99492.81;1590943;89;20531;-72
2022/01/27 03:34:52;;;;;;;;;;;;;;;-5.82;83.92;99490.86;1590947;90;20145;-70
2022/01/27 03:37:18;;;;;;;;;;;;;;;-5.86;84.16;99485.12;1590724;90;21265;-71
2022/01/27 03:39:44;;;;;;;;;;;;;;;-5.86;84.28;99493.66;1590926;90;21026;-71
2022/01/27 03:42:10;;;;;;;;;;;;;;;-5.86;84.36;99487.79;1591082;90;20395;-69
2022/01/27 03:44:36;;;;;;;;;;;;;;;-5.85;84.39;99481.92;1590775;90;20177;-69
2022/01/27 03:47:05;;;;;;;;;;;;;;;-5.85;84.53;99479.25;1590862;90;20198;-69
2022/01/27 03:49:31;;;;;;;;;;;;;;;-5.85;84.60;99468.05;1590906;90;21145;-69
2022/01/27 03:52:00;;;;;;;;;;;;;;;-5.88;84.54;99471.66;1590910;90;20457;-69
2022/01/27 03:54:26;;;;;;;;;;;;;;;-5.92;84.59;99457.92;1591020;89;20174;-70
2022/01/27 03:56:52;;;;;;;;;;;;;;;-5.94;84.68;99456.48;1590916;89;20145;-69
2022/01/27 03:59:18;;;;;;;;;;;;;;;-5.99;84.64;99447.77;1590984;90;20208;-69
2022/01/27 04:01:45;;;;;;;;;;;;;;;-6.06;84.76;99450.46;1590810;90;21067;-68
2022/01/27 04:04:11;;;;;;;;;;;;;;;-6.08;85.07;99459.72;1590872;90;20149;-68
2022/01/27 04:06:40;;;;;;;;;;;;;;;-6.08;85.31;99448.52;1592993;87;20158;-69
2022/01/27 04:09:08;;;;;;;;;;;;;;;-6.06;85.31;99449.12;1616595;87;20471;-69
2022/01/27 04:11:34;;;;;;;;;;;;;;;-6.04;85.47;99452.92;1616249;88;20160;-68
2022/01/27 04:14:00;;;;;;;;;;;;;;;-6.04;85.53;99454.26;1616346;88;21061;-70
2022/01/27 04:16:27;;;;;;;;;;;;;;;-6.05;85.58;99445.94;1616287;87;20183;-69
2022/01/27 04:18:53;;;;;;;;;;;;;;;-6.06;85.73;99448.30;1616254;88;20116;-69
2022/01/27 04:21:20;;;;;;;;;;;;;;;-6.07;85.93;99446.15;1616493;88;20155;-70
2022/01/27 04:23:46;;;;;;;;;;;;;;;-6.11;86.24;99431.56;1616273;87;20423;-70
2022/01/27 04:26:16;;;;;;;;;;;;;;;-6.15;86.24;99430.34;1616232;88;21142;-70
2022/01/27 04:28:41;;;;;;;;;;;;;;;-6.20;86.33;99427.99;1616145;88;20126;-70
2022/01/27 04:31:10;;;;;;;;;;;;;;;-6.26;86.51;99422.97;1616265;88;20147;-70
2022/01/27 04:33:37;;;;;;;;;;;;;;;-6.31;86.67;99421.45;1609275;87;20451;-70
2022/01/27 04:36:13;;;;;;;;;;;;;;;-6.36;86.93;99430.12;1591032;88;20493;-70
2022/01/27 04:38:44;;;;;;;;;;;;;;;-6.38;87.18;99429.50;1591021;90;21189;-72
2022/01/27 04:41:17;;;;;;;;;;;;;;;-6.37;87.33;99430.33;1590813;90;20133;-71
2022/01/27 04:46:30;;;;;;;;;;;;;;;-6.32;87.66;99427.82;1590870;90;20177;-70
2022/01/27 04:48:54;;;;;;;;;;;;;;;-6.29;87.88;99427.40;1590854;88;20173;-69
2022/01/27 04:51:21;;;;;;;;;;;;;;;-6.26;88.02;99424.83;1590854;90;21180;-69
2022/01/27 04:54:12;;;;;;;;;;;;;;;-6.24;88.19;99431.60;1590861;90;21594;-68
2022/01/27 04:56:37;;;;;;;;;;;;;;;-6.20;88.43;99430.15;1592035;87;20963;-68
2022/01/27 04:59:07;;;;;;;;;;;;;;;-6.15;88.67;99423.66;1603577;87;20180;-69
2022/01/27 05:01:36;;;;;;;;;;;;;;;-6.08;88.95;99427.13;1597436;87;20190;-69
2022/01/27 05:04:04;;;;;;;;;;;;;;;-6.04;88.97;99431.54;1602669;88;21140;-70
2022/01/27 05:06:28;;;;;;;;;;;;;;;-6.03;88.85;99426.50;1602937;87;20206;-69
2022/01/27 05:08:55;;;;;;;;;;;;;;;-6.03;88.81;99427.32;1591162;90;20213;-70
2022/01/27 05:11:27;;;;;;;;;;;;;;;-6.02;88.88;99425.47;1591022;90;20141;-71
2022/01/27 05:13:56;;;;;;;;;;;;;;;-6.00;88.96;99431.42;1592302;87;20507;-70
2022/01/27 05:16:18;;;;;;;;;;;;;;;-6.00;88.94;99434.09;1603073;88;21072;-71
2022/01/27 05:18:45;;;;;;;;;;;;;;;-5.99;88.98;99431.73;1616357;88;20155;-71
2022/01/27 05:21:11;;;;;;;;;;;;;;;-5.98;89.04;99437.37;1609345;87;20156;-71
2022/01/27 05:23:38;;;;;;;;;;;;;;;-5.98;89.18;99432.03;1609104;87;20164;-71
2022/01/27 05:26:04;;;;;;;;;;;;;;;-5.99;89.19;99425.05;1592973;88;20467;-72
2022/01/27 05:28:31;;;;;;;;;;;;;;;-6.00;89.30;99421.55;1591077;90;21066;-73
2022/01/27 05:30:57;;;;;;;;;;;;;;;-6.01;89.29;99423.10;1590878;90;20144;-72
2022/01/27 05:33:23;;;;;;;;;;;;;;;-6.02;89.31;99427.63;1591182;90;20447;-72
2022/01/27 05:35:49;;;;;;;;;;;;;;;-6.01;89.48;99418.58;1591334;90;21317;-72
2022/01/27 05:38:16;;;;;;;;;;;;;;;-6.01;89.53;99421.77;1591039;90;20456;-72
2022/01/27 05:40:43;;;;;;;;;;;;;;;-5.98;89.70;99416.00;1591057;90;21077;-72
2022/01/27 05:43:10;;;;;;;;;;;;;;;-5.92;89.91;99421.02;1591080;90;20136;-71
2022/01/27 05:45:36;;;;;;;;;;;;;;;-5.88;89.93;99422.20;1591256;90;20213;-72
2022/01/27 05:48:03;;;;;;;;;;;;;;;-5.85;89.99;99419.09;1591018;90;20475;-72
2022/01/27 05:50:29;;;;;;;;;;;;;;;-5.81;90.12;99427.00;1591118;90;20467;-72
2022/01/27 05:52:55;;;;;;;;;;;;;;;-5.75;90.46;99424.78;1591062;88;21531;-71
2022/01/27 05:55:22;;;;;;;;;;;;;;;-5.71;90.49;99421.98;1591235;90;20128;-70
2022/01/27 05:57:48;;;;;;;;;;;;;;;-5.60;91.02;99419.98;1590967;90;20213;-73
2022/01/27 06:00:15;;;;;;;;;;;;;;;-5.49;91.00;99417.95;1595207;87;20222;-72
2022/01/27 06:02:42;;;;;;;;;;;;;;;-5.40;91.01;99418.01;1590581;90;20174;-72
2022/01/27 06:05:09;;;;;;;;;;;;;;;-5.29;90.93;99418.36;1591393;90;21480;-72
2022/01/27 06:07:35;;;;;;;;;;;;;;;-5.21;90.65;99412.75;1590926;88;20109;-72
2022/01/27 06:10:02;;;;;;;;;;;;;;;-5.16;90.52;99414.22;1591302;90;20201;-69
2022/01/27 06:12:29;;;;;;;;;;;;;;;-5.11;90.36;99414.39;1591007;88;20981;-69
2022/01/27 06:14:56;;;;;;;;;;;;;;;-5.10;90.33;99406.14;1591030;90;20157;-69
2022/01/27 06:17:22;;;;;;;;;;;;;;;-5.07;90.25;99406.23;1621135;88;21087;-69
2022/01/27 06:19:54;;;;;;;;;;;;;;;-5.07;90.17;99407.56;1621940;88;20097;-70
2022/01/27 06:22:18;;;;;;;;;;;;;;;-5.04;90.21;99407.13;1621825;88;20427;-69
2022/01/27 06:24:44;;;;;;;;;;;;;;;-5.04;90.39;99399.09;1622082;87;20436;-70
2022/01/27 06:27:11;;;;;;;;;;;;;;;-5.03;90.48;99391.37;1622159;88;20443;-71
2022/01/27 06:29:38;;;;;;;;;;;;;;;-5.03;90.59;99386.84;1622077;88;21153;-70
2022/01/27 06:32:05;;;;;;;;;;;;;;;-5.01;90.93;99384.76;1621946;88;21618;-71
2022/01/27 06:34:32;;;;;;;;;;;;;;;-4.95;91.13;99391.62;1622021;88;20172;-71
2022/01/27 06:36:58;;;;;;;;;;;;;;;-4.90;91.32;99384.56;1622169;88;20204;-71
2022/01/27 06:39:24;;;;;;;;;;;;;;;-4.85;91.47;99388.75;1622102;88;20205;-70
2022/01/27 06:41:51;;;;;;;;;;;;;;;-4.83;91.51;99385.84;1622023;88;21149;-70
2022/01/27 06:44:17;;;;;;;;;;;;;;;-4.79;91.75;99377.16;1622066;88;20185;-70
2022/01/27 06:46:43;;;;;;;;;;;;;;;-4.77;91.75;99375.08;1622186;88;20157;-70
2022/01/27 06:49:14;;;;;;;;;;;;;;;-4.76;91.80;99374.04;1622213;88;20605;-70
2022/01/27 06:51:37;;;;;;;;;;;;;;;-4.74;91.84;99379.17;1621755;88;20153;-70
2022/01/27 06:54:04;;;;;;;;;;;;;;;-4.70;92.10;99371.00;1621918;88;21151;-70
2022/01/27 06:56:30;;;;;;;;;;;;;;;-4.65;92.15;99372.50;1622069;88;20220;-71
2022/01/27 06:58:56;;;;;;;;;;;;;;;-4.63;92.17;99362.89;1622035;88;20475;-71
2022/01/27 07:01:22;;;;;;;;;;;;;;;-4.61;92.29;99362.13;1620718;88;21996;-74
2022/01/27 07:03:49;;;;;;;;;;;;;;;-4.55;92.44;99359.38;1638133;86;20193;-83
2022/01/27 07:06:18;;;;;;;;;;;;;;;-4.48;92.60;99366.83;1648596;85;21097;-78
2022/01/27 07:08:46;;;;;;;;;;;;;;;-4.43;92.52;99368.31;1622940;85;20188;-74
2022/01/27 07:11:21;;;;;;;;;;;;;;;-4.41;92.66;99364.89;1603401;86;20496;-69
2022/01/27 07:13:46;;;;;;;;;;;;;;;-4.36;92.89;99361.02;1632630;87;20140;-69
2022/01/27 07:16:19;;;;;;;;;;;;;;;-4.32;92.96;99360.06;1598639;88;20157;-69
2022/01/27 07:18:48;;;;;;;;;;;;;;;-4.28;93.08;99357.23;1622890;87;21160;-69
2022/01/27 07:21:19;;;;;;;;;;;;;;;-4.24;93.21;99357.08;1622295;88;20149;-72
2022/01/27 07:23:50;;;;;;;;;;;;;;;-4.21;93.38;99359.31;1631753;85;32432;-72
2022/01/27 07:26:24;;;;;;;;;;;;;;;-4.19;93.43;99351.05;1648466;87;20486;-73
2022/01/27 07:28:45;;;;;;;;;;;;;;;-4.16;93.71;99350.08;1647743;87;20500;-74
2022/01/27 07:31:15;;;;;;;;;;;;;;;-4.14;93.90;99351.19;1648342;85;21837;-70
2022/01/27 07:33:48;;;;;;;;;;;;;;;-4.11;94.19;99346.72;1607125;87;20205;-71
2022/01/27 07:36:21;;;;;;;;;;;;;;;-4.05;94.40;99346.64;1598383;88;20471;-73
2022/01/27 07:38:53;;;;;;;;;;;;;;;-3.97;94.56;99344.66;1621677;87;20176;-75
2022/01/27 07:41:23;;;;;;;;;;;;;;;-3.92;94.69;99342.94;1622239;88;20520;-72
2022/01/27 07:43:50;;;;;;;;;;;;;;;-3.86;94.61;99350.08;1622021;87;20185;-71
2022/01/27 07:46:20;;;;;;;;;;;;;;;-3.80;94.76;99338.97;1622184;87;20177;-78
2022/01/27 07:48:47;;;;;;;;;;;;;;;-3.74;94.84;99335.38;1622119;88;20370;-78
2022/01/27 07:51:15;;;;;;;;;;;;;;;-3.68;94.83;99337.96;1623025;87;20470;-75
2022/01/27 07:53:43;;;;;;;;;;;;;;;-3.63;94.71;99335.94;1622246;88;20479;-75
2022/01/27 07:56:09;;;;;;;;;;;;;;;-3.59;94.71;99330.93;1624712;85;21180;-71
2022/01/27 07:58:38;;;;;;;;;;;;;;;-3.57;94.64;99328.31;1635951;87;20162;-72
2022/01/27 08:01:08;;;;;;;;;;;;;;;-3.54;94.70;99327.86;1622465;87;20507;-72
2022/01/27 08:03:38;;;;;;;;;;;;;;;-3.52;94.70;99329.78;1622572;88;20447;-74
2022/01/27 08:06:05;;;;;;;;;;;;;;;-3.49;94.78;99324.48;1622888;88;20179;-73
2022/01/27 08:08:32;;;;;;;;;;;;;;;-3.48;94.82;99316.20;1622483;87;21158;-73
2022/01/27 08:10:59;;;;;;;;;;;;;;;-3.45;95.03;99319.73;1622606;88;21024;-79
2022/01/27 08:13:25;;;;;;;;;;;;;;;-3.41;95.55;99320.91;1643488;85;20154;-76
2022/01/27 08:15:53;;;;;;;;;;;;;;;-3.34;95.61;99316.78;1646347;85;20172;-75
2022/01/27 08:18:20;;;;;;;;;;;;;;;-3.32;95.68;99316.03;1629207;87;20178;-76
2022/01/27 08:20:47;;;;;;;;;;;;;;;-3.30;95.89;99317.14;1618041;88;21140;-77
2022/01/27 08:23:15;;;;;;;;;;;;;;;-3.29;96.30;99320.94;1617481;88;20124;-77
2022/01/27 08:25:48;;;;;;;;;;;;;;;-3.28;96.52;99313.18;1621572;86;20197;-81
2022/01/27 08:28:22;;;;;;;;;;;;;;;-3.21;96.97;99314.41;1627386;87;20856;-77
2022/01/27 08:30:47;;;;;;;;;;;;;;;-3.07;97.36;99301.06;1643228;87;20178;-75
2022/01/27 08:33:16;;;;;;;;;;;;;;;-2.96;97.39;99302.11;1643758;87;21139;-83
2022/01/27 08:35:42;;;;;;;;;;;;;;;-2.83;97.66;99311.25;1643392;86;21821;-76
2022/01/27 08:38:10;;;;;;;;;;;;;;;-2.75;97.35;99307.69;1635840;86;20133;-76
2022/01/27 08:40:38;;;;;;;;;;;;;;;-2.72;97.23;99315.27;1623125;87;20704;-76
2022/01/27 08:43:16;;;;;;;;;;;;;;;-2.70;97.32;99309.14;1616208;87;20347;-77
2022/01/27 08:46:01;;;;;;;;;;;;;;;-2.66;97.24;99304.11;1596652;88;20165;-82
2022/01/27 08:48:18;;;;;;;;;;;;;;;-2.60;97.37;99306.38;1613664;88;20427;-76
2022/01/27 08:50:50;;;;;;;;;;;;;;;-2.55;97.35;99302.46;1617268;87;20204;-77
2022/01/27 08:53:16;;;;;;;;;;;;;;;-2.53;96.99;99296.33;1616188;88;20219;-78
2022/01/27 08:55:46;;;;;;;;;;;;;;;-2.49;97.21;99301.52;1616745;88;20511;-78
2022/01/27 08:58:16;;;;;;;;;;;;;;;-2.43;97.08;99297.88;1617209;88;21882;-75
2022/01/27 09:00:48;;;;;;;;;;;;;;;-2.38;97.09;99296.12;1599567;88;20140;-74
2022/01/27 09:03:21;;;;;;;;;;;;;;;-2.28;97.18;99298.17;1599736;88;20140;-76
2022/01/27 09:05:49;;;;;;;;;;;;;;;-2.16;97.38;99298.14;1617413;87;20181;-77
2022/01/27 09:08:22;;;;;;;;;;;;;;;-2.10;96.96;99294.49;1619522;86;20148;-76
2022/01/27 09:10:54;;;;;;;;;;;;;;;-2.11;96.72;99287.48;1609155;87;20506;-75
2022/01/27 09:13:33;;;;;;;;;;;;;;;-2.12;96.94;99285.31;1642940;86;20160;-78
2022/01/27 09:16:01;;;;;;;;;;;;;;;-2.10;97.08;99283.73;1642960;87;20239;-75
2022/01/27 09:18:32;;;;;;;;;;;;;;;-2.08;97.20;99284.31;1596676;89;20206;-78
2022/01/27 09:21:12;;;;;;;;;;;;;;;-2.07;97.35;99285.41;1613546;89;20169;-80
2022/01/27 09:23:39;;;;;;;;;;;;;;;-2.10;97.34;99281.05;1594085;89;20177;-78
2022/01/27 09:26:26;;;;;;;;;;;;;;;-2.11;97.87;99277.53;1598058;87;20245;-77
2022/01/27 09:28:55;;;;;;;;;;;;;;;-2.07;98.17;99268.46;1582225;90;20244;-76
2022/01/27 09:31:20;;;;;;;;;;;;;;;-1.98;98.44;99268.89;1587722;90;20181;-78
2022/01/27 09:33:48;;;;;;;;;;;;;;;-1.87;98.70;99266.67;1588466;88;20228;-75
2022/01/27 09:36:24;;;;;;;;;;;;;;;-1.76;98.32;99263.11;1587683;89;20766;-75
2022/01/27 09:38:55;;;;;;;;;;;;;;;-1.70;98.04;99263.45;1577584;88;20237;-76
2022/01/27 09:41:28;;;;;;;;;;;;;;;-1.64;97.79;99262.48;1602551;87;20150;-76
2022/01/27 09:44:08;;;;;;;;;;;;;;;-1.64;97.44;99265.18;1617371;87;20166;-78
2022/01/27 09:46:32;;;;;;;;;;;;;;;-1.65;97.48;99263.55;1613448;87;20230;-78
2022/01/27 09:49:12;;;;;;;;;;;;;;;-1.65;97.31;99260.86;1614027;87;21471;-80
2022/01/27 09:51:40;;;;;;;;;;;;;;;-1.69;96.95;99261.05;1597357;88;20893;-80
2022/01/27 09:54:16;;;;;;;;;;;;;;;-1.74;97.11;99258.30;1613102;88;20233;-78
2022/01/27 09:56:59;;;;;;;;;;;;;;;-1.76;97.36;99257.73;1613365;89;20508;-77
2022/01/27 09:59:14;;;;;;;;;;;;;;;-1.79;97.35;99259.56;1612507;88;20237;-77
2022/01/27 10:02:03;;;;;;;;;;;;;;;-1.84;97.47;99256.78;1596563;87;20157;-75
2022/01/27 10:04:49;;;;;;;;;;;;;;;-1.87;97.72;99251.88;1617307;87;20214;-77
2022/01/27 10:07:26;;;;;;;;;;;;;;;-1.94;97.96;99252.56;1613531;87;20166;-76
2022/01/27 10:10:15;;;;;;;;;;;;;;;-1.97;98.50;99244.44;1609215;87;20208;-75
2022/01/27 10:12:43;;;;;;;;;;;;;;;-2.00;98.70;99241.70;1574383;90;20150;-76
2022/01/27 10:15:22;;;;;;;;;;;;;;;-1.96;99.33;99238.53;1623260;87;21132;-76
2022/01/27 10:18:10;;;;;;;;;;;;;;;-1.90;99.53;99240.25;1624404;87;20204;-75
2022/01/27 10:21:01;;;;;;;;;;;;;;;-1.84;99.65;99240.63;1650767;85;20646;-75
2022/01/27 10:23:34;;;;;;;;;;;;;;;-1.82;99.65;99235.83;1609510;87;20191;-74
2022/01/27 10:26:12;;;;;;;;;;;;;;;-1.78;99.88;99234.28;1652380;87;20202;-73
2022/01/27 10:29:01;;;;;;;;;;;;;;;-1.75;100.00;99229.77;1640634;85;21189;-75
2022/01/27 10:31:28;;;;;;;;;;;;;;;-1.75;100.00;99224.37;1624162;85;20169;-77
2022/01/27 10:34:01;;;;;;;;;;;;;;;-1.74;100.00;99223.32;1626783;85;20179;-82
2022/01/27 10:36:43;;;;;;;;;;;;;;;-1.69;100.00;99228.76;1625947;87;20180;-76
2022/01/27 10:39:25;;;;;;;;;;;;;;;-1.64;100.00;99226.16;1641784;85;20189;-76
2022/01/27 10:42:07;;;;;;;;;;;;;;;-1.62;100.00;99212.45;1642713;86;21168;-70
2022/01/27 10:44:47;;;;;;;;;;;;;;;-1.61;100.00;99217.59;1626471;86;20478;-73
2022/01/27 10:47:29;;;;;;;;;;;;;;;-1.58;100.00;99213.06;1590808;88;20132;-74
2022/01/27 10:50:02;;;;;;;;;;;;;;;-1.54;100.00;99214.73;1624510;87;20458;-74
2022/01/27 10:52:37;;;;;;;;;;;;;;;-1.52;100.00;99199.97;1589557;88;20123;-75
2022/01/27 10:55:14;;;;;;;;;;;;;;;-1.49;100.00;99206.21;1625673;87;21158;-72
2022/01/27 10:57:50;;;;;;;;;;;;;;;-1.46;100.00;99201.68;1626496;87;20163;-78
2022/01/27 11:00:14;;;;;;;;;;;;;;;-1.40;100.00;99196.66;1625567;87;20176;-75
2022/01/27 11:02:53;;;;;;;;;;;;;;;-1.33;100.00;99193.80;1626108;88;20175;-75
2022/01/27 11:05:24;;;;;;;;;;;;;;;-1.22;100.00;99196.11;1609769;88;20131;-74
2022/01/27 11:07:50;;;;;;;;;;;;;;;-1.13;100.00;99198.64;1625790;85;21207;-74
2022/01/27 11:10:17;;;;;;;;;;;;;;;-1.05;100.00;99190.95;1626600;88;20172;-74
2022/01/27 11:12:46;;;;;;;;;;;;;;;-0.96;100.00;99189.17;1625223;87;20216;-74
2022/01/27 11:15:14;;;;;;;;;;;;;;;-0.88;100.00;99190.09;1626545;88;20199;-73
2022/01/27 11:17:43;;;;;;;;;;;;;;;-0.81;100.00;99192.07;1640455;85;20476;-72
2022/01/27 11:28:06;;;;;;;;;;;;;;;-0.61;100.00;99176.68;1636853;87;20095;-72
2022/01/27 11:30:51;;;;;;;;;;;;;;;-0.56;100.00;99180.76;1651905;86;20234;-74
2022/01/27 11:33:24;;;;;;;;;;;;;;;-0.52;100.00;99171.91;1608581;88;20187;-75
2022/01/27 11:36:15;;;;;;;;;;;;;;;-0.47;100.00;99170.63;1639876;87;20129;-75
2022/01/27 11:38:45;;;;;;;;;;;;;;;-0.44;100.00;99170.65;1606796;88;20142;-78
2022/01/27 11:41:48;;;;;;;;;;;;;;;-0.43;100.00;99166.35;1639984;87;20183;-79
2022/01/27 11:44:28;;;;;;;;;;;;;;;-0.38;100.00;99162.89;1618128;86;20202;-80
2022/01/27 11:47:13;;;;;;;;;;;;;;;-0.35;100.00;99162.39;1639351;86;21159;-73
2022/01/27 11:50:23;;;;;;;;;;;;;;;-0.32;100.00;99157.84;1657095;86;20140;-76
2022/01/27 11:52:39;;;;;;;;;;;;;;;-0.27;100.00;99155.19;1632418;87;20130;-74
2022/01/27 11:55:27;;;;;;;;;;;;;;;-0.23;100.00;99159.02;1608674;88;20179;-76
2022/01/27 11:58:12;;;;;;;;;;;;;;;-0.19;100.00;99156.08;1634877;86;20178;-77
2022/01/27 12:00:45;;;;;;;;;;;;;;;-0.13;100.00;99157.77;1652533;86;21852;-73
2022/01/27 12:03:15;;;;;;;;;;;;;;;-0.08;100.00;99152.95;1597894;87;20252;-76
2022/01/27 12:05:45;;;;;;;;;;;;;;;-0.06;100.00;99144.88;1636670;87;20477;-74
2022/01/27 12:08:18;;;;;;;;;;;;;;;-0.03;100.00;99150.30;1638319;86;20203;-75
2022/01/27 12:11:00;;;;;;;;;;;;;;;-0.02;100.00;99150.04;1653465;86;20475;-74
2022/01/27 12:19:06;;;;;;;;;;;;;;;0.03;100.00;99155.99;1637585;87;20189;-77
2022/01/27 12:21:38;;;;;;;;;;;;;;;0.05;100.00;99149.80;1648574;86;20131;-77
2022/01/27 12:24:24;;;;;;;;;;;;;;;0.09;100.00;99144.17;1652893;86;20157;-78
2022/01/27 12:27:06;;;;;;;;;;;;;;;0.13;100.00;99151.22;1637360;87;21196;-79
2022/01/27 12:29:45;;;;;;;;;;;;;;;0.19;100.00;99144.79;1646878;85;20153;-75
2022/01/27 12:32:22;;;;;;;;;;;;;;;0.24;100.00;99143.48;1622263;87;20140;-79
2022/01/27 12:34:58;;;;;;;;;;;;;;;0.29;100.00;99139.47;1638425;87;20525;-73
2022/01/27 12:37:28;;;;;;;;;;;;;;;0.35;100.00;99145.73;1627494;88;20145;-75
2022/01/27 12:39:59;;;;;;;;;;;;;;;0.40;100.00;99134.42;1612183;89;21184;-75
2022/01/27 12:42:40;;;;;;;;;;;;;;;0.45;100.00;99143.92;1615389;87;20188;-76
2022/01/27 12:45:08;;;;;;;;;;;;;;;0.48;100.00;99142.05;1608984;89;20196;-75
2022/01/27 12:47:38;;;;;;;;;;;;;;;0.51;100.00;99140.72;1641262;87;20226;-80
2022/01/27 12:50:09;;;;;;;;;;;;;;;0.54;100.00;99143.71;1646234;87;20186;-80
2022/01/27 12:52:40;;;;;;;;;;;;;;;0.56;100.00;99140.21;1639919;86;22004;-80
2022/01/27 12:55:11;;;;;;;;;;;;;;;0.57;100.00;99139.14;1651049;86;20161;-74
2022/01/27 12:57:40;;;;;;;;;;;;;;;0.58;100.00;99142.09;1650646;86;20603;-69
2022/01/27 13:00:09;;;;;;;;;;;;;;;0.58;100.00;99142.63;1640695;87;20195;-69
2022/01/27 13:02:37;;;;;;;;;;;;;;;0.57;100.00;99141.84;1640846;87;20445;-69
2022/01/27 13:05:04;;;;;;;;;;;;;;;0.57;100.00;99147.78;1635385;86;21825;-69
2022/01/27 13:07:38;;;;;;;;;;;;;;;0.57;100.00;99142.38;1607514;88;20165;-69
2022/01/27 13:10:06;;;;;;;;;;;;;;;0.57;100.00;99141.84;1650210;86;20159;-82
2022/01/27 13:12:58;;;;;;;;;;;;;;;0.57;100.00;99139.14;1617721;87;20123;-77
2022/01/27 13:15:25;;;;;;;;;;;;;;;0.60;100.00;99139.13;1639427;87;20185;-79
2022/01/27 13:18:12;;;;;;;;;;;;;;;0.61;100.00;99141.56;1629718;87;21183;-74
2022/01/27 13:20:42;;;;;;;;;;;;;;;0.62;100.00;99139.68;1645102;87;21099;-74
2022/01/27 13:23:27;;;;;;;;;;;;;;;0.64;100.00;99135.64;1622220;87;20626;-79
2022/01/27 13:25:54;;;;;;;;;;;;;;;0.65;100.00;99143.21;1643535;87;20177;-83
2022/01/27 13:28:27;;;;;;;;;;;;;;;0.64;100.00;99138.88;1622059;88;20247;-79
2022/01/27 13:30:56;;;;;;;;;;;;;;;0.65;100.00;99139.16;1636913;87;21178;-75
2022/01/27 13:33:24;;;;;;;;;;;;;;;0.65;100.00;99137.27;1632460;86;20209;-83
2022/01/27 13:35:56;;;;;;;;;;;;;;;0.66;100.00;99136.20;1609001;87;20153;-85
2022/01/27 13:38:50;;;;;;;;;;;;;;;0.65;100.00;99129.16;1600303;87;20128;-85
2022/01/27 13:41:27;;;;;;;;;;;;;;;0.66;100.00;99130.80;1608380;87;20122;-85
2022/01/27 13:43:57;;;;;;;;;;;;;;;0.68;100.00;99127.02;1633383;87;21198;-88